OSOK1: Oswego hwy 160

                                SHEF ID:       OSOK1     Oswego hwy 160
STATION TYPE:

PRECIP STAGE RIV-FLOW VOLTAGE BAT-LOAD
in ft cfs volt volt
Ccp-Rev Ccp-Rev Ccp-Rev Ccp-Rev Ccp-Rev
(America/Chicago)
03/14 00:00 0.00 14.95 6235 12.76 12.50
03/14 01:00 0.00 14.86 6128 12.74 12.48
03/14 02:00 0.00 14.78 6033 12.71 12.45
03/14 03:00 0.00 14.71 5950 12.69 12.43
03/14 04:00 0.00 14.62 5844 12.67 12.40
03/14 05:00 0.00 14.57 5785 12.65 12.37
03/14 06:00 0.00 14.49 5691 12.63 12.37
03/14 07:00 0.00 14.44 5633 12.61 12.34
03/14 08:00 0.00 14.38 5563 12.66 12.34
03/14 09:00 0.00 14.32 5494 14.34 13.16
03/14 10:00 0.00 14.27 5436 13.99 13.42
03/14 11:00 0.00 14.21 5366 13.38 13.12
03/14 12:00 0.00 14.17 5316 13.44 13.06
03/14 13:00 0.00 14.12 5254 13.47 13.04
03/14 14:00 0.00 14.08 5205 13.42 13.01
03/14 15:00 0.00 14.02 5131 13.33 12.96
03/14 16:00 0.00 14.01 5119 13.26 12.90
03/14 17:00 0.00 13.97 5070 13.26 12.86
03/14 18:00 0.00 13.93 5022 13.35 12.85
03/14 19:00 0.00 13.90 4985 13.12 12.86
03/14 20:00 0.00 13.88 4961 12.91 12.67
03/14 21:00 0.00 13.86 4937 12.84 12.59
03/14 22:00 0.00 13.83 4900 12.81 12.54
03/14 23:00 0.00 13.79 4852 12.79 12.53
Data processed at Sun 15Mar2026 04:50 GMT

NOTICE: If you are parsing this page

Please convert to using our Data API. Starting early 2026 we will be migrating to: https://water.usace.army.mil with modern pages rendered in JavaScript. When this migration completes you will no longer be able to scrape this page! CWMSDataAPI (CDA)

Timeseries IDs (TSIDs)

TSIDs used from left to right in the data table
OSWN.Precip-Inc.Total.1Hour.1Hour.Ccp-Rev
OSWN.Stage.Inst.1Hour.0.Ccp-Rev
OSWN.Flow.Inst.1Hour.0.Ccp-Rev
OSWN.Volt-Battery.Inst.1Hour.0.Ccp-Rev
OSWN.Volt-Battery Load.Inst.1Hour.0.Ccp-Rev

                            

All information presented herein is the property of the government of the United States of America and may be revised or deleted at any time without prior notice. Dissemination of this information without the expressed written consent of the Public Affairs Office, Tulsa District U.S. Army Corps of Engineers is strictly prohibited. These data are gathered electronically and, as presented, have NOT undergone any form of quality control. These data are NOT guaranteed to be valid or correct.